| Back to River Map | <<< Previous Forecast Point | | | Next Forecast Point >>> | Printer Version | Graph Version |  |
|
SACRAMENTO RIVER - BEND BRIDGE (BDBC1)
| Latitude: 40.29º N | Longitude: 122.19º W | Elevation: 286 Feet | | Forecast Type: Official Location |
| Location: Tehama County in California | Bulletin Group: Upper Sacramento | River Group: Upper Sacramento |
| Issuance Time: | May 03 2026 at 7:37 AM PDT | Next Issuance: | May 04 2026 at 9:00 AM PDT
| |
| Action/Monitor: 22.0 Feet | Minor Flood: 27.0 Feet | Moderate Flood: 29.5 Feet | Major Flood: 31.0 Feet |
# Tabular Observed and Forecast Hydrograph Information
#
# Location: Sacramento River - Bend Bridge (BDBC1)
#
# File Generation Time: 05/03/2026 at 07:37 AM PDT
# Data Interval: 1 Hour
#
# Most Recent Date & Time of Maximum Observed: 04/28/2026 at 07:00 AM PDT
# Maximum Observed Stage: 2.92 Feet
# Maximum Observed Flow: 7958 cfs
#
# Earliest Date & Time of Maximum Forecast: 05/05/2026 at 01:00 PM PDT
# Maximum Forecast Stage: 3.09 Feet
# Maximum Forecast Flow: 8281 cfs
#
# OBSERVED
#
# Date & Time (Local) Stage (Feet) Flow (cfs) Trend Observed Status
# ---------------------------------------------------------------------------------
04/28/2026 07 AM PDT 2.92 7958 Normal
04/28/2026 08 AM PDT 2.91 7939 - Normal
04/28/2026 09 AM PDT 2.90 7920 - Normal
04/28/2026 10 AM PDT 2.89 7901 - Normal
04/28/2026 11 AM PDT 2.88 7882 - Normal
04/28/2026 12 PM PDT 2.88 7882 0 Normal
04/28/2026 01 PM PDT 2.87 7863 - Normal
04/28/2026 02 PM PDT 2.86 7844 - Normal
04/28/2026 03 PM PDT 2.84 7806 - Normal
04/28/2026 04 PM PDT 2.84 7806 0 Normal
04/28/2026 05 PM PDT 2.85 7825 + Normal
04/28/2026 06 PM PDT 2.88 7882 + Normal
04/28/2026 07 PM PDT 2.89 7901 + Normal
04/28/2026 08 PM PDT 2.88 7882 - Normal
04/28/2026 09 PM PDT 2.87 7863 - Normal
04/28/2026 10 PM PDT 2.83 7787 - Normal
04/28/2026 11 PM PDT 2.81 7750 - Normal
04/29/2026 12 AM PDT 2.79 7712 - Normal
04/29/2026 01 AM PDT 2.78 7693 - Normal
04/29/2026 02 AM PDT 2.77 7674 - Normal
04/29/2026 03 AM PDT 2.74 7618 - Normal
04/29/2026 04 AM PDT 2.72 7580 - Normal
04/29/2026 05 AM PDT 2.71 7562 - Normal
04/29/2026 06 AM PDT 2.71 7562 0 Normal
04/29/2026 07 AM PDT 2.72 7580 + Normal
04/29/2026 08 AM PDT 2.72 7580 0 Normal
04/29/2026 09 AM PDT 2.72 7580 0 Normal
04/29/2026 10 AM PDT 2.70 7543 - Normal
04/29/2026 11 AM PDT 2.71 7562 + Normal
04/29/2026 12 PM PDT 2.71 7562 0 Normal
04/29/2026 01 PM PDT 2.71 7562 0 Normal
04/29/2026 02 PM PDT 2.71 7562 0 Normal
04/29/2026 03 PM PDT 2.69 7524 - Normal
04/29/2026 04 PM PDT 2.68 7505 - Normal
04/29/2026 05 PM PDT 2.71 7562 + Normal
04/29/2026 06 PM PDT 2.75 7637 + Normal
04/29/2026 07 PM PDT 2.79 7712 + Normal
04/29/2026 08 PM PDT 2.81 7750 + Normal
04/29/2026 09 PM PDT 2.81 7750 0 Normal
04/29/2026 10 PM PDT 2.80 7731 - Normal
04/29/2026 11 PM PDT 2.80 7731 0 Normal
04/30/2026 12 AM PDT 2.79 7712 - Normal
04/30/2026 01 AM PDT 2.77 7674 - Normal
04/30/2026 02 AM PDT 2.75 7637 - Normal
04/30/2026 03 AM PDT 2.70 7543 - Normal
04/30/2026 04 AM PDT 2.65 7449 - Normal
04/30/2026 05 AM PDT 2.61 7374 - Normal
04/30/2026 06 AM PDT 2.61 7374 0 Normal
04/30/2026 07 AM PDT 2.59 7337 - Normal
04/30/2026 08 AM PDT 2.60 7356 + Normal
04/30/2026 09 AM PDT 2.62 7393 + Normal
04/30/2026 10 AM PDT 2.62 7393 0 Normal
04/30/2026 11 AM PDT 2.62 7393 0 Normal
04/30/2026 12 PM PDT 2.63 7412 + Normal
04/30/2026 01 PM PDT 2.61 7374 - Normal
04/30/2026 02 PM PDT 2.62 7393 + Normal
04/30/2026 03 PM PDT 2.60 7356 - Normal
04/30/2026 04 PM PDT 2.60 7356 0 Normal
04/30/2026 05 PM PDT 2.60 7356 0 Normal
04/30/2026 06 PM PDT 2.61 7374 + Normal
04/30/2026 07 PM PDT 2.61 7374 0 Normal
04/30/2026 08 PM PDT 2.65 7449 + Normal
04/30/2026 09 PM PDT 2.66 7468 + Normal
04/30/2026 10 PM PDT 2.63 7412 - Normal
04/30/2026 11 PM PDT 2.59 7337 - Normal
05/01/2026 12 AM PDT 2.57 7300 - Normal
05/01/2026 01 AM PDT 2.56 7281 - Normal
05/01/2026 02 AM PDT 2.56 7281 0 Normal
05/01/2026 03 AM PDT 2.55 7263 - Normal
05/01/2026 04 AM PDT 2.55 7263 0 Normal
05/01/2026 05 AM PDT 2.54 7244 - Normal
05/01/2026 06 AM PDT 2.53 7225 - Normal
05/01/2026 07 AM PDT 2.53 7225 0 Normal
05/01/2026 08 AM PDT 2.55 7263 + Normal
05/01/2026 09 AM PDT 2.54 7244 - Normal
05/01/2026 10 AM PDT 2.53 7225 - Normal
05/01/2026 11 AM PDT 2.54 7244 + Normal
05/01/2026 12 PM PDT 2.53 7225 - Normal
05/01/2026 01 PM PDT 2.53 7225 0 Normal
05/01/2026 02 PM PDT 2.52 7207 - Normal
05/01/2026 03 PM PDT 2.53 7225 + Normal
05/01/2026 04 PM PDT 2.53 7225 0 Normal
05/01/2026 05 PM PDT 2.53 7225 0 Normal
05/01/2026 06 PM PDT 2.52 7207 - Normal
05/01/2026 07 PM PDT 2.52 7207 0 Normal
05/01/2026 08 PM PDT 2.52 7207 0 Normal
05/01/2026 09 PM PDT 2.53 7225 + Normal
05/01/2026 10 PM PDT 2.52 7207 - Normal
05/01/2026 11 PM PDT 2.50 7170 - Normal
05/02/2026 12 AM PDT 2.51 7188 + Normal
05/02/2026 01 AM PDT 2.51 7188 0 Normal
05/02/2026 02 AM PDT 2.50 7170 - Normal
05/02/2026 03 AM PDT 2.50 7170 0 Normal
05/02/2026 04 AM PDT 2.51 7188 + Normal
05/02/2026 05 AM PDT 2.50 7170 - Normal
05/02/2026 06 AM PDT 2.50 7170 0 Normal
05/02/2026 07 AM PDT 2.50 7170 0 Normal
05/02/2026 08 AM PDT 2.51 7188 + Normal
05/02/2026 09 AM PDT 2.52 7207 + Normal
05/02/2026 10 AM PDT 2.50 7170 - Normal
05/02/2026 11 AM PDT 2.51 7188 + Normal
05/02/2026 12 PM PDT 2.51 7188 0 Normal
05/02/2026 01 PM PDT 2.51 7188 0 Normal
05/02/2026 02 PM PDT 2.51 7188 0 Normal
05/02/2026 03 PM PDT 2.51 7188 0 Normal
05/02/2026 04 PM PDT 2.51 7188 0 Normal
05/02/2026 05 PM PDT 2.51 7188 0 Normal
05/02/2026 06 PM PDT 2.52 7207 + Normal
05/02/2026 07 PM PDT 2.51 7188 - Normal
05/02/2026 08 PM PDT 2.51 7188 0 Normal
05/02/2026 09 PM PDT 2.52 7207 + Normal
05/02/2026 10 PM PDT 2.53 7225 + Normal
05/02/2026 11 PM PDT 2.56 7281 + Normal
05/03/2026 12 AM PDT 2.61 7374 + Normal
05/03/2026 01 AM PDT 2.63 7412 + Normal
05/03/2026 02 AM PDT 2.60 7356 - Normal
05/03/2026 03 AM PDT 2.56 7281 - Normal
05/03/2026 04 AM PDT 2.52 7207 - Normal
05/03/2026 05 AM PDT 2.49 7151 - Normal
05/03/2026 06 AM PDT 2.49 7151 0 Normal
05/03/2026 07 AM PDT 2.49 7151 0 Normal
#
# FORECAST
#
# Date & Time (Local) Stage (Feet) Flow (cfs) Trend Forecast Status
# ---------------------------------------------------------------------------------
05/03/2026 08 AM PDT 2.48 7133 Normal
05/03/2026 09 AM PDT 2.48 7133 0 Normal
05/03/2026 10 AM PDT 2.48 7133 0 Normal
05/03/2026 11 AM PDT 2.48 7133 0 Normal
05/03/2026 12 PM PDT 2.48 7133 0 Normal
05/03/2026 01 PM PDT 2.47 7114 - Normal
05/03/2026 02 PM PDT 2.47 7114 0 Normal
05/03/2026 03 PM PDT 2.47 7114 0 Normal
05/03/2026 04 PM PDT 2.47 7114 0 Normal
05/03/2026 05 PM PDT 2.47 7114 0 Normal
05/03/2026 06 PM PDT 2.47 7114 0 Normal
05/03/2026 07 PM PDT 2.47 7114 0 Normal
05/03/2026 08 PM PDT 2.47 7114 0 Normal
05/03/2026 09 PM PDT 2.47 7114 0 Normal
05/03/2026 10 PM PDT 2.47 7114 0 Normal
05/03/2026 11 PM PDT 2.48 7133 + Normal
05/04/2026 12 AM PDT 2.48 7133 0 Normal
05/04/2026 01 AM PDT 2.48 7133 0 Normal
05/04/2026 02 AM PDT 2.49 7151 + Normal
05/04/2026 03 AM PDT 2.50 7170 + Normal
05/04/2026 04 AM PDT 2.50 7170 0 Normal
05/04/2026 05 AM PDT 2.50 7170 0 Normal
05/04/2026 06 AM PDT 2.51 7188 + Normal
05/04/2026 07 AM PDT 2.51 7188 0 Normal
05/04/2026 08 AM PDT 2.50 7170 - Normal
05/04/2026 09 AM PDT 2.50 7170 0 Normal
05/04/2026 10 AM PDT 2.50 7170 0 Normal
05/04/2026 11 AM PDT 2.50 7170 0 Normal
05/04/2026 12 PM PDT 2.50 7170 0 Normal
05/04/2026 01 PM PDT 2.49 7151 - Normal
05/04/2026 02 PM PDT 2.49 7151 0 Normal
05/04/2026 03 PM PDT 2.49 7151 0 Normal
05/04/2026 04 PM PDT 2.49 7151 0 Normal
05/04/2026 05 PM PDT 2.49 7151 0 Normal
05/04/2026 06 PM PDT 2.49 7151 0 Normal
05/04/2026 07 PM PDT 2.49 7151 0 Normal
05/04/2026 08 PM PDT 2.49 7151 0 Normal
05/04/2026 09 PM PDT 2.49 7151 0 Normal
05/04/2026 10 PM PDT 2.50 7170 + Normal
05/04/2026 11 PM PDT 2.50 7170 0 Normal
05/05/2026 12 AM PDT 2.51 7188 + Normal
05/05/2026 01 AM PDT 2.53 7225 + Normal
05/05/2026 02 AM PDT 2.54 7244 + Normal
05/05/2026 03 AM PDT 2.56 7281 + Normal
05/05/2026 04 AM PDT 2.58 7319 + Normal
05/05/2026 05 AM PDT 2.60 7356 + Normal
05/05/2026 06 AM PDT 2.61 7374 + Normal
05/05/2026 07 AM PDT 2.72 7580 + Normal
05/05/2026 08 AM PDT 2.89 7901 + Normal
05/05/2026 09 AM PDT 2.99 8091 + Normal
05/05/2026 10 AM PDT 3.04 8186 + Normal
05/05/2026 11 AM PDT 3.07 8243 + Normal
05/05/2026 12 PM PDT 3.08 8262 + Normal
05/05/2026 01 PM PDT 3.09 8281 + Normal
05/05/2026 02 PM PDT 3.08 8262 - Normal
05/05/2026 03 PM PDT 3.08 8262 0 Normal
05/05/2026 04 PM PDT 3.08 8262 0 Normal
05/05/2026 05 PM PDT 3.07 8243 - Normal
05/05/2026 06 PM PDT 3.07 8243 0 Normal
05/05/2026 07 PM PDT 3.06 8224 - Normal
05/05/2026 08 PM PDT 3.06 8224 0 Normal
05/05/2026 09 PM PDT 3.05 8205 - Normal
05/05/2026 10 PM PDT 3.05 8205 0 Normal
05/05/2026 11 PM PDT 3.04 8186 - Normal
05/06/2026 12 AM PDT 3.04 8186 0 Normal
05/06/2026 01 AM PDT 3.04 8186 0 Normal
05/06/2026 02 AM PDT 3.04 8186 0 Normal
05/06/2026 03 AM PDT 3.03 8167 - Normal
05/06/2026 04 AM PDT 3.03 8167 0 Normal
05/06/2026 05 AM PDT 3.03 8167 0 Normal
05/06/2026 06 AM PDT 3.02 8148 - Normal
05/06/2026 07 AM PDT 3.02 8148 0 Normal
05/06/2026 08 AM PDT 3.02 8148 0 Normal
05/06/2026 09 AM PDT 3.02 8148 0 Normal
05/06/2026 10 AM PDT 3.02 8148 0 Normal
05/06/2026 11 AM PDT 3.02 8148 0 Normal
05/06/2026 12 PM PDT 3.01 8129 - Normal
05/06/2026 01 PM PDT 3.01 8129 0 Normal
05/06/2026 02 PM PDT 3.01 8129 0 Normal
05/06/2026 03 PM PDT 3.01 8129 0 Normal
05/06/2026 04 PM PDT 3.01 8129 0 Normal
05/06/2026 05 PM PDT 3.01 8129 0 Normal
05/06/2026 06 PM PDT 3.00 8110 - Normal
05/06/2026 07 PM PDT 3.00 8110 0 Normal
05/06/2026 08 PM PDT 3.00 8110 0 Normal
05/06/2026 09 PM PDT 3.00 8110 0 Normal
05/06/2026 10 PM PDT 3.00 8110 0 Normal
05/06/2026 11 PM PDT 3.00 8110 0 Normal
05/07/2026 12 AM PDT 3.00 8110 0 Normal
05/07/2026 01 AM PDT 2.99 8091 - Normal
05/07/2026 02 AM PDT 2.99 8091 0 Normal
05/07/2026 03 AM PDT 2.99 8091 0 Normal
05/07/2026 04 AM PDT 2.99 8091 0 Normal
05/07/2026 05 AM PDT 2.99 8091 0 Normal
05/07/2026 06 AM PDT 2.99 8091 0 Normal
05/07/2026 07 AM PDT 2.98 8072 - Normal
05/07/2026 08 AM PDT 2.98 8072 0 Normal
05/07/2026 09 AM PDT 2.98 8072 0 Normal
05/07/2026 10 AM PDT 2.98 8072 0 Normal
05/07/2026 11 AM PDT 2.98 8072 0 Normal
05/07/2026 12 PM PDT 2.98 8072 0 Normal
05/07/2026 01 PM PDT 2.98 8072 0 Normal
05/07/2026 02 PM PDT 2.98 8072 0 Normal
05/07/2026 03 PM PDT 2.98 8072 0 Normal
05/07/2026 04 PM PDT 2.97 8053 - Normal
05/07/2026 05 PM PDT 2.97 8053 0 Normal
05/07/2026 06 PM PDT 2.97 8053 0 Normal
05/07/2026 07 PM PDT 2.97 8053 0 Normal
05/07/2026 08 PM PDT 2.97 8053 0 Normal
05/07/2026 09 PM PDT 2.97 8053 0 Normal
05/07/2026 10 PM PDT 2.97 8053 0 Normal
05/07/2026 11 PM PDT 2.97 8053 0 Normal
05/08/2026 12 AM PDT 2.96 8034 - Normal
05/08/2026 01 AM PDT 2.96 8034 0 Normal
05/08/2026 02 AM PDT 2.96 8034 0 Normal
05/08/2026 03 AM PDT 2.96 8034 0 Normal
05/08/2026 04 AM PDT 2.96 8034 0 Normal
05/08/2026 05 AM PDT 2.96 8034 0 Normal
#
# NOTE 1: Stages are rounded to the nearest hundredth (.01) of a foot.
# NOTE 2: Flows are rounded to the nearest (1) cfs.
# NOTE 3: Trends are determined using hourly change in unrounded stage and flow.
# NOTE 4: Maximum Values are determined using unrounded stage and flow.
|